AAY471 KLAS-KDSM
Flight info
| Callsign | AAY471 |
|---|---|
| Flight time | 2h 25m |
| Altitude | 35000 |
| Route | GIDGT3 TUKRR DVC J146 LNK OVR |
| Aircraft | A320/M-SDE3FGHIRWY/LB1 |
Departure
| Time | 2026-05-03 23:46 |
|---|---|
| Airport | Harry Reid International Airport (KLAS) |
Arrival
| Time | 2026-05-04 02:11 |
|---|---|
| Airport | Des Moines International Airport (KDSM) |
| Time | Latitude | Longitude | Altitude | Speed | Heading |
|---|---|---|---|---|---|
| 2026-05-03 22:59 | 36.08706 | -115.15277 | 2188 ft | 0 kts | 224° |
| 2026-05-03 23:28 | 36.08719 | -115.15260 | 2188 ft | 4 kts | 230° |
| 2026-05-03 23:28 | 36.08730 | -115.15242 | 2189 ft | 4 kts | 242° |
| 2026-05-03 23:28 | 36.08737 | -115.15213 | 2191 ft | 4 kts | 288° |
| 2026-05-03 23:29 | 36.08734 | -115.15202 | 2190 ft | 0 kts | 311° |
| 2026-05-03 23:35 | 36.08749 | -115.15224 | 2189 ft | 7 kts | 311° |
| 2026-05-03 23:36 | 36.08782 | -115.15283 | 2191 ft | 10 kts | 293° |
| 2026-05-03 23:36 | 36.08785 | -115.15382 | 2188 ft | 13 kts | 270° |
| 2026-05-03 23:36 | 36.08759 | -115.15489 | 2191 ft | 14 kts | 212° |
| 2026-05-03 23:36 | 36.08665 | -115.15539 | 2191 ft | 11 kts | 206° |
| 2026-05-03 23:37 | 36.08603 | -115.15575 | 2188 ft | 9 kts | 205° |
| 2026-05-03 23:37 | 36.08540 | -115.15613 | 2191 ft | 11 kts | 206° |
| 2026-05-03 23:37 | 36.08467 | -115.15667 | 2191 ft | 13 kts | 188° |
| 2026-05-03 23:37 | 36.08374 | -115.15621 | 2188 ft | 16 kts | 154° |
| 2026-05-03 23:38 | 36.08268 | -115.15560 | 2188 ft | 18 kts | 155° |
| 2026-05-03 23:38 | 36.08149 | -115.15490 | 2190 ft | 20 kts | 155° |
| 2026-05-03 23:38 | 36.08033 | -115.15424 | 2190 ft | 19 kts | 154° |
| 2026-05-03 23:38 | 36.07927 | -115.15362 | 2189 ft | 17 kts | 155° |
| 2026-05-03 23:39 | 36.07822 | -115.15291 | 2188 ft | 16 kts | 131° |
| 2026-05-03 23:39 | 36.07805 | -115.15144 | 2188 ft | 20 kts | 91° |
| 2026-05-03 23:39 | 36.07794 | -115.14963 | 2188 ft | 23 kts | 95° |
| 2026-05-03 23:39 | 36.07782 | -115.14758 | 2189 ft | 21 kts | 95° |
| 2026-05-03 23:40 | 36.07769 | -115.14563 | 2191 ft | 20 kts | 94° |
| 2026-05-03 23:40 | 36.07758 | -115.14392 | 2189 ft | 19 kts | 95° |
| 2026-05-03 23:40 | 36.07754 | -115.14238 | 2188 ft | 19 kts | 90° |
| 2026-05-03 23:40 | 36.07755 | -115.14066 | 2188 ft | 21 kts | 90° |
| 2026-05-03 23:41 | 36.07754 | -115.13886 | 2189 ft | 22 kts | 90° |
| 2026-05-03 23:41 | 36.07755 | -115.13702 | 2189 ft | 21 kts | 90° |
| 2026-05-03 23:41 | 36.07755 | -115.13511 | 2189 ft | 23 kts | 92° |
| 2026-05-03 23:41 | 36.07755 | -115.13319 | 2189 ft | 21 kts | 89° |
| 2026-05-03 23:42 | 36.07755 | -115.13123 | 2188 ft | 24 kts | 90° |
| 2026-05-03 23:42 | 36.07755 | -115.12933 | 2188 ft | 20 kts | 89° |
| 2026-05-03 23:42 | 36.07756 | -115.12779 | 2188 ft | 15 kts | 90° |
| 2026-05-03 23:42 | 36.07756 | -115.12736 | 2188 ft | 0 kts | 90° |
| 2026-05-03 23:43 | 36.07756 | -115.12724 | 2188 ft | 4 kts | 90° |
| 2026-05-03 23:43 | 36.07756 | -115.12689 | 2187 ft | 4 kts | 90° |
| 2026-05-03 23:43 | 36.07756 | -115.12647 | 2187 ft | 6 kts | 90° |
| 2026-05-03 23:43 | 36.07756 | -115.12598 | 2187 ft | 5 kts | 90° |
| 2026-05-03 23:44 | 36.07756 | -115.12549 | 2188 ft | 9 kts | 90° |
| 2026-05-03 23:44 | 36.07756 | -115.12474 | 2188 ft | 5 kts | 90° |
| 2026-05-03 23:44 | 36.07756 | -115.12442 | 2188 ft | 6 kts | 90° |
| 2026-05-03 23:44 | 36.07756 | -115.12312 | 2188 ft | 19 kts | 90° |
| 2026-05-03 23:45 | 36.07716 | -115.12233 | 2188 ft | 10 kts | 177° |
| 2026-05-03 23:45 | 36.07643 | -115.12282 | 2189 ft | 18 kts | 253° |
| 2026-05-03 23:45 | 36.07641 | -115.12609 | 2193 ft | 70 kts | 270° |
| 2026-05-03 23:45 | 36.07639 | -115.13478 | 2189 ft | 130 kts | 269° |
| 2026-05-03 23:46 | 36.07634 | -115.14801 | 2191 ft | 177 kts | 271° |
| 2026-05-03 23:46 | 36.07671 | -115.16380 | 2690 ft | 183 kts | 267° |
| 2026-05-03 23:46 | 36.07725 | -115.17964 | 3372 ft | 186 kts | 267° |
| 2026-05-03 23:46 | 36.07791 | -115.19574 | 3944 ft | 189 kts | 265° |
| 2026-05-03 23:47 | 36.07776 | -115.21269 | 4165 ft | 208 kts | 264° |
| 2026-05-03 23:47 | 36.07732 | -115.23140 | 4449 ft | 225 kts | 265° |
| 2026-05-03 23:47 | 36.07698 | -115.25069 | 5051 ft | 224 kts | 266° |
| 2026-05-03 23:47 | 36.08031 | -115.26980 | 5652 ft | 236 kts | 295° |
| 2026-05-03 23:48 | 36.09176 | -115.28503 | 6054 ft | 259 kts | 328° |
| 2026-05-03 23:48 | 36.10949 | -115.29217 | 6418 ft | 273 kts | 346° |
| 2026-05-03 23:48 | 36.12860 | -115.29425 | 7006 ft | 280 kts | 6° |
| 2026-05-03 23:48 | 36.14733 | -115.28769 | 7691 ft | 283 kts | 28° |
| 2026-05-03 23:49 | 36.16365 | -115.27320 | 8081 ft | 297 kts | 50° |
| 2026-05-03 23:49 | 36.17510 | -115.25177 | 8626 ft | 301 kts | 68° |
| 2026-05-03 23:49 | 36.18298 | -115.22765 | 9296 ft | 305 kts | 71° |
| 2026-05-03 23:49 | 36.19072 | -115.20304 | 9977 ft | 307 kts | 73° |
| 2026-05-03 23:50 | 36.19583 | -115.17728 | 10475 ft | 314 kts | 86° |
| 2026-05-03 23:50 | 36.19652 | -115.15908 | 10569 ft | 327 kts | 94° |
| 2026-05-03 23:50 | 36.19636 | -115.11981 | 10818 ft | 353 kts | 93° |
| 2026-05-03 23:50 | 36.19623 | -115.08921 | 11332 ft | 359 kts | 93° |
| 2026-05-03 23:51 | 36.19617 | -115.05819 | 11969 ft | 362 kts | 93° |
| 2026-05-03 23:51 | 36.19616 | -115.02686 | 12611 ft | 365 kts | 93° |
| 2026-05-03 23:51 | 36.19616 | -114.99532 | 13240 ft | 367 kts | 93° |
| 2026-05-03 23:51 | 36.19618 | -114.96362 | 13752 ft | 371 kts | 93° |
| 2026-05-03 23:52 | 36.19620 | -114.93148 | 14304 ft | 374 kts | 93° |
| 2026-05-03 23:52 | 36.19621 | -114.89923 | 14855 ft | 377 kts | 93° |
| 2026-05-03 23:52 | 36.19618 | -114.86660 | 15408 ft | 380 kts | 93° |
| 2026-05-03 23:52 | 36.19612 | -114.83379 | 15940 ft | 383 kts | 93° |
| 2026-05-03 23:53 | 36.19603 | -114.80072 | 16460 ft | 386 kts | 94° |
| 2026-05-03 23:53 | 36.19592 | -114.76744 | 17001 ft | 389 kts | 94° |
| 2026-05-03 23:53 | 36.19582 | -114.73413 | 17507 ft | 393 kts | 93° |
| 2026-05-03 23:53 | 36.19572 | -114.70063 | 18027 ft | 396 kts | 93° |
| 2026-05-03 23:54 | 36.19564 | -114.66689 | 18469 ft | 399 kts | 94° |
| 2026-05-03 23:54 | 36.19558 | -114.63238 | 18872 ft | 404 kts | 93° |
| 2026-05-03 23:54 | 36.19554 | -114.59741 | 19289 ft | 408 kts | 93° |
| 2026-05-03 23:54 | 36.19547 | -114.56205 | 19694 ft | 413 kts | 93° |
| 2026-05-03 23:55 | 36.19537 | -114.52635 | 20115 ft | 417 kts | 93° |
| 2026-05-03 23:55 | 36.19525 | -114.49027 | 20538 ft | 421 kts | 93° |
| 2026-05-03 23:55 | 36.19512 | -114.45392 | 20939 ft | 425 kts | 94° |
| 2026-05-03 23:55 | 36.19499 | -114.41710 | 21322 ft | 429 kts | 94° |
| 2026-05-03 23:56 | 36.19486 | -114.37940 | 21714 ft | 434 kts | 94° |
| 2026-05-03 23:56 | 36.19470 | -114.34194 | 22102 ft | 438 kts | 94° |
| 2026-05-03 23:56 | 36.19451 | -114.30411 | 22470 ft | 442 kts | 94° |
| 2026-05-03 23:56 | 36.19432 | -114.26636 | 22846 ft | 446 kts | 94° |
| 2026-05-03 23:57 | 36.19568 | -114.22774 | 23194 ft | 454 kts | 86° |
| 2026-05-03 23:57 | 36.20028 | -114.18884 | 23490 ft | 458 kts | 84° |
| 2026-05-03 23:57 | 36.20505 | -114.14962 | 23757 ft | 463 kts | 84° |
| 2026-05-03 23:57 | 36.20986 | -114.11007 | 24001 ft | 467 kts | 84° |
| 2026-05-03 23:58 | 36.21470 | -114.07014 | 24221 ft | 471 kts | 84° |
| 2026-05-03 23:58 | 36.21952 | -114.02989 | 24473 ft | 475 kts | 84° |
| 2026-05-03 23:58 | 36.22433 | -113.98925 | 24750 ft | 478 kts | 84° |
| 2026-05-03 23:58 | 36.22912 | -113.94834 | 24998 ft | 482 kts | 84° |
| 2026-05-03 23:59 | 36.23394 | -113.90712 | 25246 ft | 486 kts | 84° |
| 2026-05-03 23:59 | 36.23877 | -113.86559 | 25502 ft | 489 kts | 84° |
| 2026-05-03 23:59 | 36.24363 | -113.82370 | 25758 ft | 493 kts | 84° |
| 2026-05-03 23:59 | 36.24853 | -113.78153 | 26022 ft | 497 kts | 84° |
| 2026-05-04 00:00 | 36.25347 | -113.73904 | 26263 ft | 501 kts | 84° |
| 2026-05-04 00:00 | 36.25847 | -113.69613 | 26517 ft | 504 kts | 84° |
| 2026-05-04 00:00 | 36.26351 | -113.65304 | 26744 ft | 508 kts | 84° |
| 2026-05-04 00:00 | 36.26858 | -113.60965 | 26971 ft | 511 kts | 84° |
| 2026-05-04 00:01 | 36.27364 | -113.56585 | 27204 ft | 514 kts | 84° |
| 2026-05-04 00:01 | 36.27867 | -113.52188 | 27433 ft | 517 kts | 84° |
| 2026-05-04 00:01 | 36.28369 | -113.47764 | 27652 ft | 521 kts | 84° |
| 2026-05-04 00:01 | 36.28869 | -113.43301 | 27877 ft | 524 kts | 84° |
| 2026-05-04 00:02 | 36.29372 | -113.38816 | 28079 ft | 527 kts | 84° |
| 2026-05-04 00:02 | 36.29880 | -113.34303 | 28308 ft | 530 kts | 83° |
| 2026-05-04 00:02 | 36.30389 | -113.29781 | 28508 ft | 533 kts | 83° |
| 2026-05-04 00:02 | 36.30953 | -113.25216 | 28705 ft | 536 kts | 79° |
| 2026-05-04 00:03 | 36.31927 | -113.20745 | 28902 ft | 539 kts | 70° |
| 2026-05-04 00:03 | 36.33349 | -113.16443 | 29104 ft | 540 kts | 64° |
| 2026-05-04 00:03 | 36.34871 | -113.12177 | 29262 ft | 543 kts | 64° |
| 2026-05-04 00:03 | 36.36394 | -113.07873 | 29424 ft | 546 kts | 64° |
| 2026-05-04 00:04 | 36.37919 | -113.03546 | 29607 ft | 548 kts | 65° |
| 2026-05-04 00:04 | 36.39442 | -112.99198 | 29804 ft | 550 kts | 65° |
| 2026-05-04 00:04 | 36.40961 | -112.94844 | 30036 ft | 550 kts | 65° |
| 2026-05-04 00:04 | 36.42477 | -112.90484 | 30257 ft | 550 kts | 65° |
| 2026-05-04 00:05 | 36.43994 | -112.86129 | 30509 ft | 549 kts | 65° |
| 2026-05-04 00:05 | 36.45511 | -112.81776 | 30762 ft | 549 kts | 64° |
| 2026-05-04 00:05 | 36.47031 | -112.77426 | 31041 ft | 547 kts | 64° |
| 2026-05-04 00:05 | 36.48542 | -112.73099 | 31324 ft | 546 kts | 64° |
| 2026-05-04 00:06 | 36.50050 | -112.68776 | 31591 ft | 545 kts | 64° |
| 2026-05-04 00:06 | 36.51555 | -112.64457 | 31833 ft | 544 kts | 64° |
| 2026-05-04 00:06 | 36.53052 | -112.60143 | 32135 ft | 543 kts | 64° |
| 2026-05-04 00:06 | 36.54523 | -112.55889 | 32390 ft | 542 kts | 65° |
| 2026-05-04 00:07 | 36.56021 | -112.51535 | 32656 ft | 541 kts | 64° |
| 2026-05-04 00:07 | 36.57505 | -112.47227 | 32915 ft | 541 kts | 64° |
| 2026-05-04 00:07 | 36.58988 | -112.42933 | 33143 ft | 541 kts | 64° |
| 2026-05-04 00:07 | 36.60472 | -112.38633 | 33396 ft | 540 kts | 64° |
| 2026-05-04 00:08 | 36.61953 | -112.34340 | 33632 ft | 540 kts | 64° |
| 2026-05-04 00:08 | 36.63416 | -112.30099 | 33846 ft | 540 kts | 64° |
| 2026-05-04 00:08 | 36.64895 | -112.25799 | 34051 ft | 540 kts | 64° |
| 2026-05-04 00:08 | 36.66369 | -112.21497 | 34234 ft | 540 kts | 64° |
| 2026-05-04 00:09 | 36.67839 | -112.17192 | 34421 ft | 540 kts | 64° |
| 2026-05-04 00:09 | 36.69306 | -112.12887 | 34602 ft | 540 kts | 64° |
| 2026-05-04 00:09 | 36.70775 | -112.08572 | 34778 ft | 540 kts | 64° |
| 2026-05-04 00:09 | 36.72238 | -112.04273 | 34906 ft | 540 kts | 64° |
| 2026-05-04 00:10 | 36.75164 | -111.95656 | 34924 ft | 539 kts | 64° |
| 2026-05-04 00:10 | 36.78076 | -111.87054 | 34914 ft | 538 kts | 64° |
| 2026-05-04 00:11 | 36.80976 | -111.78460 | 34917 ft | 537 kts | 64° |
| 2026-05-04 00:11 | 36.83388 | -111.71310 | 34923 ft | 536 kts | 64° |
| 2026-05-04 00:12 | 36.86283 | -111.62737 | 34947 ft | 536 kts | 64° |
| 2026-05-04 00:12 | 36.89349 | -111.54254 | 34974 ft | 535 kts | 62° |
| 2026-05-04 00:13 | 36.92505 | -111.45848 | 34979 ft | 535 kts | 62° |
| 2026-05-04 00:13 | 36.95624 | -111.37403 | 34988 ft | 535 kts | 63° |
| 2026-05-04 00:14 | 36.98690 | -111.28942 | 34969 ft | 534 kts | 63° |
| 2026-05-04 00:14 | 37.01743 | -111.20471 | 34938 ft | 534 kts | 63° |
| 2026-05-04 00:15 | 37.04786 | -111.12018 | 34900 ft | 532 kts | 63° |
| 2026-05-04 00:15 | 37.07825 | -111.03568 | 34862 ft | 532 kts | 63° |
| 2026-05-04 00:16 | 37.10858 | -110.95135 | 34844 ft | 531 kts | 63° |
| 2026-05-04 00:16 | 37.13884 | -110.86696 | 34840 ft | 531 kts | 63° |
| 2026-05-04 00:17 | 37.16901 | -110.78255 | 34838 ft | 530 kts | 63° |
| 2026-05-04 00:17 | 37.19909 | -110.69806 | 34833 ft | 531 kts | 64° |
| 2026-05-04 00:18 | 37.22900 | -110.61347 | 34828 ft | 531 kts | 64° |
| 2026-05-04 00:18 | 37.25890 | -110.52881 | 34822 ft | 530 kts | 64° |
| 2026-05-04 00:19 | 37.28886 | -110.44420 | 34824 ft | 530 kts | 64° |
| 2026-05-04 00:19 | 37.31872 | -110.35950 | 34827 ft | 530 kts | 64° |
| 2026-05-04 00:20 | 37.34828 | -110.27519 | 34828 ft | 531 kts | 64° |
| 2026-05-04 00:20 | 37.37796 | -110.19024 | 34838 ft | 531 kts | 64° |
| 2026-05-04 00:21 | 37.40783 | -110.10460 | 34851 ft | 531 kts | 64° |
| 2026-05-04 00:21 | 37.43745 | -110.01963 | 34855 ft | 530 kts | 64° |
| 2026-05-04 00:22 | 37.46686 | -109.93504 | 34870 ft | 530 kts | 64° |
| 2026-05-04 00:22 | 37.49631 | -109.84996 | 34900 ft | 530 kts | 64° |
| 2026-05-04 00:23 | 37.52569 | -109.76474 | 34952 ft | 530 kts | 64° |
| 2026-05-04 00:23 | 37.55495 | -109.67951 | 34990 ft | 530 kts | 64° |
| 2026-05-04 00:24 | 37.58423 | -109.59426 | 35031 ft | 530 kts | 64° |
| 2026-05-04 00:24 | 37.61346 | -109.50896 | 35032 ft | 530 kts | 64° |
| 2026-05-04 00:25 | 37.64256 | -109.42353 | 35037 ft | 530 kts | 64° |
| 2026-05-04 00:25 | 37.67157 | -109.33813 | 35005 ft | 529 kts | 64° |
| 2026-05-04 00:26 | 37.70058 | -109.25268 | 34985 ft | 529 kts | 64° |
| 2026-05-04 00:26 | 37.72945 | -109.16723 | 34954 ft | 529 kts | 64° |
| 2026-05-04 00:27 | 37.75821 | -109.08186 | 34935 ft | 528 kts | 64° |
| 2026-05-04 00:27 | 37.78692 | -108.99637 | 34942 ft | 528 kts | 64° |
| 2026-05-04 00:28 | 37.81555 | -108.91098 | 34950 ft | 527 kts | 63° |
| 2026-05-04 00:28 | 37.84500 | -108.82620 | 34949 ft | 526 kts | 62° |
| 2026-05-04 00:29 | 37.87498 | -108.74193 | 34950 ft | 525 kts | 62° |
| 2026-05-04 00:29 | 37.90465 | -108.65753 | 34950 ft | 525 kts | 63° |
| 2026-05-04 00:30 | 37.93399 | -108.57293 | 34955 ft | 524 kts | 63° |
| 2026-05-04 00:30 | 37.96312 | -108.48839 | 34957 ft | 523 kts | 63° |
| 2026-05-04 00:31 | 37.99225 | -108.40404 | 34964 ft | 522 kts | 63° |
| 2026-05-04 00:31 | 38.02138 | -108.31986 | 34999 ft | 521 kts | 62° |
| 2026-05-04 00:32 | 38.05030 | -108.23570 | 35063 ft | 520 kts | 63° |
| 2026-05-04 00:32 | 38.07902 | -108.15160 | 35109 ft | 519 kts | 63° |
| 2026-05-04 00:33 | 38.12207 | -108.02580 | 35144 ft | 517 kts | 63° |
| 2026-05-04 00:34 | 38.15056 | -107.94189 | 35144 ft | 516 kts | 63° |
| 2026-05-04 00:34 | 38.17868 | -107.85887 | 35117 ft | 516 kts | 63° |
| 2026-05-04 00:35 | 38.20700 | -107.77503 | 35083 ft | 515 kts | 63° |
| 2026-05-04 00:35 | 38.23519 | -107.69146 | 35024 ft | 514 kts | 63° |
| 2026-05-04 00:36 | 38.26336 | -107.60795 | 35034 ft | 513 kts | 63° |
| 2026-05-04 00:36 | 38.29127 | -107.52469 | 35036 ft | 511 kts | 63° |
| 2026-05-04 00:37 | 38.31902 | -107.44149 | 35040 ft | 510 kts | 63° |
| 2026-05-04 00:37 | 38.34668 | -107.35855 | 35044 ft | 508 kts | 63° |
| 2026-05-04 00:38 | 38.37425 | -107.27570 | 35069 ft | 507 kts | 63° |
| 2026-05-04 00:38 | 38.40169 | -107.19289 | 35094 ft | 506 kts | 63° |
| 2026-05-04 00:39 | 38.42896 | -107.11026 | 35119 ft | 505 kts | 64° |
| 2026-05-04 00:39 | 38.45465 | -107.02684 | 35138 ft | 507 kts | 72° |
| 2026-05-04 00:40 | 38.47196 | -106.93964 | 35143 ft | 507 kts | 73° |
| 2026-05-04 00:40 | 38.48937 | -106.85262 | 35142 ft | 506 kts | 73° |
| 2026-05-04 00:41 | 38.50673 | -106.76565 | 35128 ft | 505 kts | 73° |
| 2026-05-04 00:41 | 38.52385 | -106.67873 | 35098 ft | 504 kts | 73° |
| 2026-05-04 00:42 | 38.54088 | -106.59206 | 35062 ft | 503 kts | 73° |
| 2026-05-04 00:42 | 38.55783 | -106.50551 | 35027 ft | 502 kts | 73° |
| 2026-05-04 00:43 | 38.57470 | -106.41899 | 35024 ft | 502 kts | 73° |
| 2026-05-04 00:43 | 38.59143 | -106.33252 | 35035 ft | 500 kts | 73° |
| 2026-05-04 00:44 | 38.60810 | -106.24625 | 35058 ft | 500 kts | 73° |
| 2026-05-04 00:44 | 38.62454 | -106.16068 | 35065 ft | 498 kts | 74° |
| 2026-05-04 00:45 | 38.64113 | -106.07408 | 35076 ft | 498 kts | 74° |
| 2026-05-04 00:45 | 38.65742 | -105.98875 | 35058 ft | 497 kts | 74° |
| 2026-05-04 00:46 | 38.67373 | -105.90287 | 35019 ft | 496 kts | 74° |
| 2026-05-04 00:46 | 38.69004 | -105.81649 | 34949 ft | 496 kts | 74° |
| 2026-05-04 00:47 | 38.70612 | -105.73125 | 34877 ft | 496 kts | 74° |
| 2026-05-04 00:47 | 38.72220 | -105.64542 | 34797 ft | 496 kts | 74° |
| 2026-05-04 00:48 | 38.73821 | -105.55957 | 34775 ft | 496 kts | 74° |
| 2026-05-04 00:48 | 38.75413 | -105.47365 | 34751 ft | 496 kts | 74° |
| 2026-05-04 00:49 | 38.77001 | -105.38771 | 34731 ft | 495 kts | 74° |
| 2026-05-04 00:49 | 38.78586 | -105.30178 | 34715 ft | 495 kts | 73° |
| 2026-05-04 00:50 | 38.80168 | -105.21587 | 34711 ft | 495 kts | 74° |
| 2026-05-04 00:50 | 38.81730 | -105.12991 | 34787 ft | 495 kts | 74° |
| 2026-05-04 00:51 | 38.83289 | -105.04377 | 34851 ft | 495 kts | 74° |
| 2026-05-04 00:51 | 38.84847 | -104.95788 | 34917 ft | 495 kts | 74° |
| 2026-05-04 00:52 | 38.86397 | -104.87184 | 34973 ft | 495 kts | 74° |
| 2026-05-04 00:52 | 38.87944 | -104.78570 | 34995 ft | 495 kts | 74° |
| 2026-05-04 00:53 | 38.89486 | -104.69951 | 35014 ft | 495 kts | 74° |
| 2026-05-04 00:53 | 38.91016 | -104.61331 | 35054 ft | 495 kts | 74° |
| 2026-05-04 00:54 | 38.92539 | -104.52709 | 35062 ft | 495 kts | 74° |
| 2026-05-04 00:54 | 38.94045 | -104.44161 | 35053 ft | 494 kts | 74° |
| 2026-05-04 00:55 | 38.95553 | -104.35554 | 35004 ft | 494 kts | 75° |
| 2026-05-04 00:55 | 38.97052 | -104.26935 | 34954 ft | 494 kts | 74° |
| 2026-05-04 00:56 | 38.98546 | -104.18333 | 34900 ft | 493 kts | 75° |
| 2026-05-04 00:56 | 39.00027 | -104.09724 | 34862 ft | 493 kts | 75° |
| 2026-05-04 00:57 | 39.01500 | -104.01125 | 34857 ft | 493 kts | 75° |
| 2026-05-04 00:57 | 39.02978 | -103.92520 | 34875 ft | 492 kts | 75° |
| 2026-05-04 00:58 | 39.04447 | -103.83920 | 34894 ft | 492 kts | 75° |
| 2026-05-04 00:58 | 39.05903 | -103.75316 | 34912 ft | 492 kts | 75° |
| 2026-05-04 00:59 | 39.07116 | -103.68159 | 34923 ft | 492 kts | 75° |
| 2026-05-04 00:59 | 39.08566 | -103.59548 | 34927 ft | 493 kts | 75° |
| 2026-05-04 01:00 | 39.10243 | -103.49528 | 34919 ft | 493 kts | 75° |
| 2026-05-04 01:00 | 39.11448 | -103.42305 | 34901 ft | 492 kts | 75° |
| 2026-05-04 01:01 | 39.12874 | -103.33677 | 34880 ft | 492 kts | 75° |
| 2026-05-04 01:01 | 39.14297 | -103.25060 | 34849 ft | 492 kts | 75° |
| 2026-05-04 01:02 | 39.15697 | -103.16499 | 34841 ft | 492 kts | 75° |
| 2026-05-04 01:02 | 39.17098 | -103.07878 | 34838 ft | 491 kts | 75° |
| 2026-05-04 01:03 | 39.18495 | -102.99259 | 34835 ft | 491 kts | 75° |
| 2026-05-04 01:03 | 39.19886 | -102.90640 | 34837 ft | 491 kts | 75° |
| 2026-05-04 01:04 | 39.21271 | -102.82027 | 34838 ft | 491 kts | 76° |
| 2026-05-04 01:04 | 39.22655 | -102.73414 | 34842 ft | 490 kts | 75° |
| 2026-05-04 01:05 | 39.24038 | -102.64815 | 34868 ft | 489 kts | 76° |
| 2026-05-04 01:05 | 39.25398 | -102.56233 | 34896 ft | 488 kts | 76° |
| 2026-05-04 01:06 | 39.26746 | -102.47659 | 34914 ft | 487 kts | 76° |
| 2026-05-04 01:06 | 39.28085 | -102.39093 | 34928 ft | 486 kts | 76° |
| 2026-05-04 01:07 | 39.29413 | -102.30540 | 34927 ft | 486 kts | 76° |
| 2026-05-04 01:07 | 39.30745 | -102.21998 | 34927 ft | 486 kts | 76° |
| 2026-05-04 01:08 | 39.32073 | -102.13446 | 34911 ft | 486 kts | 76° |
| 2026-05-04 01:08 | 39.33392 | -102.04895 | 34892 ft | 486 kts | 76° |
| 2026-05-04 01:09 | 39.34698 | -101.96339 | 34873 ft | 486 kts | 76° |
| 2026-05-04 01:09 | 39.36000 | -101.87773 | 34882 ft | 486 kts | 76° |
| 2026-05-04 01:10 | 39.37288 | -101.79204 | 34891 ft | 486 kts | 76° |
| 2026-05-04 01:10 | 39.38631 | -101.70642 | 34885 ft | 485 kts | 72° |
| 2026-05-04 01:11 | 39.41014 | -101.62628 | 34881 ft | 480 kts | 63° |
| 2026-05-04 01:11 | 39.43701 | -101.54718 | 34867 ft | 480 kts | 63° |
| 2026-05-04 01:12 | 39.46376 | -101.46793 | 34848 ft | 481 kts | 63° |
| 2026-05-04 01:12 | 39.49043 | -101.38841 | 34833 ft | 482 kts | 63° |
| 2026-05-04 01:13 | 39.51705 | -101.30882 | 34847 ft | 482 kts | 63° |
| 2026-05-04 01:13 | 39.54372 | -101.22916 | 34855 ft | 479 kts | 63° |
| 2026-05-04 01:13 | 39.55673 | -101.19006 | 34749 ft | 467 kts | 63° |
| 2026-05-04 01:14 | 39.56946 | -101.15172 | 34462 ft | 460 kts | 63° |
| 2026-05-04 01:14 | 39.58204 | -101.11383 | 34176 ft | 456 kts | 63° |
| 2026-05-04 01:14 | 39.59455 | -101.07614 | 33890 ft | 455 kts | 63° |
| 2026-05-04 01:14 | 39.60703 | -101.03849 | 33572 ft | 454 kts | 63° |
| 2026-05-04 01:15 | 39.61949 | -101.00088 | 33238 ft | 455 kts | 63° |
| 2026-05-04 01:15 | 39.63197 | -100.96318 | 32917 ft | 455 kts | 63° |
| 2026-05-04 01:15 | 39.64440 | -100.92544 | 32621 ft | 456 kts | 63° |
| 2026-05-04 01:15 | 39.65687 | -100.88754 | 32313 ft | 456 kts | 63° |
| 2026-05-04 01:16 | 39.66933 | -100.84964 | 32001 ft | 457 kts | 63° |
| 2026-05-04 01:16 | 39.68181 | -100.81170 | 31690 ft | 457 kts | 63° |
| 2026-05-04 01:16 | 39.69429 | -100.77373 | 31372 ft | 458 kts | 63° |
| 2026-05-04 01:16 | 39.70678 | -100.73570 | 31067 ft | 458 kts | 63° |
| 2026-05-04 01:17 | 39.71928 | -100.69757 | 30830 ft | 459 kts | 63° |
| 2026-05-04 01:17 | 39.74421 | -100.62133 | 30856 ft | 459 kts | 63° |
| 2026-05-04 01:18 | 39.76918 | -100.54476 | 30863 ft | 464 kts | 63° |
| 2026-05-04 01:18 | 39.79461 | -100.46660 | 30859 ft | 472 kts | 63° |
| 2026-05-04 01:19 | 39.82014 | -100.38777 | 30855 ft | 474 kts | 63° |
| 2026-05-04 01:19 | 39.84565 | -100.30878 | 30857 ft | 474 kts | 63° |
| 2026-05-04 01:20 | 39.87095 | -100.23016 | 30849 ft | 474 kts | 63° |
| 2026-05-04 01:20 | 39.89642 | -100.15086 | 30855 ft | 474 kts | 63° |
| 2026-05-04 01:21 | 39.92186 | -100.07167 | 30851 ft | 474 kts | 63° |
| 2026-05-04 01:21 | 39.94721 | -99.99230 | 30849 ft | 475 kts | 63° |
| 2026-05-04 01:22 | 39.97253 | -99.91278 | 30776 ft | 475 kts | 63° |
| 2026-05-04 01:22 | 39.98511 | -99.87324 | 30424 ft | 469 kts | 63° |
| 2026-05-04 01:22 | 39.99752 | -99.83409 | 30083 ft | 466 kts | 63° |
| 2026-05-04 01:22 | 40.00987 | -99.79510 | 29716 ft | 465 kts | 63° |
| 2026-05-04 01:23 | 40.02220 | -99.75613 | 29326 ft | 465 kts | 63° |
| 2026-05-04 01:23 | 40.03451 | -99.71711 | 28946 ft | 465 kts | 63° |
| 2026-05-04 01:23 | 40.04681 | -99.67805 | 28807 ft | 465 kts | 63° |
| 2026-05-04 01:24 | 40.07146 | -99.59981 | 28847 ft | 466 kts | 63° |
| 2026-05-04 01:24 | 40.09618 | -99.52133 | 28845 ft | 467 kts | 63° |
| 2026-05-04 01:25 | 40.12078 | -99.44275 | 28850 ft | 468 kts | 63° |
| 2026-05-04 01:25 | 40.14530 | -99.36402 | 28855 ft | 468 kts | 64° |
| 2026-05-04 01:26 | 40.16983 | -99.28522 | 28854 ft | 468 kts | 63° |
| 2026-05-04 01:26 | 40.19436 | -99.20644 | 28855 ft | 468 kts | 63° |
| 2026-05-04 01:27 | 40.21882 | -99.12752 | 28849 ft | 468 kts | 64° |
| 2026-05-04 01:27 | 40.24307 | -99.04860 | 28846 ft | 468 kts | 64° |
| 2026-05-04 01:28 | 40.26733 | -98.96950 | 28845 ft | 468 kts | 64° |
| 2026-05-04 01:28 | 40.29166 | -98.89023 | 28851 ft | 469 kts | 64° |
| 2026-05-04 01:29 | 40.31597 | -98.81087 | 28851 ft | 470 kts | 64° |
| 2026-05-04 01:29 | 40.34023 | -98.73133 | 28858 ft | 470 kts | 64° |
| 2026-05-04 01:30 | 40.36449 | -98.65167 | 28862 ft | 471 kts | 64° |
| 2026-05-04 01:30 | 40.38877 | -98.57192 | 28862 ft | 471 kts | 64° |
| 2026-05-04 01:31 | 40.41170 | -98.49602 | 28862 ft | 471 kts | 64° |
| 2026-05-04 01:31 | 40.43578 | -98.41602 | 28863 ft | 471 kts | 64° |
| 2026-05-04 01:32 | 40.45985 | -98.33590 | 28862 ft | 472 kts | 64° |
| 2026-05-04 01:32 | 40.48384 | -98.25563 | 28860 ft | 472 kts | 64° |
| 2026-05-04 01:33 | 40.50783 | -98.17532 | 28856 ft | 472 kts | 64° |
| 2026-05-04 01:33 | 40.53177 | -98.09486 | 28858 ft | 473 kts | 64° |
| 2026-05-04 01:34 | 40.55564 | -98.01431 | 28853 ft | 473 kts | 64° |
| 2026-05-04 01:34 | 40.57958 | -97.93369 | 28858 ft | 474 kts | 64° |
| 2026-05-04 01:35 | 40.60343 | -97.85272 | 28859 ft | 474 kts | 64° |
| 2026-05-04 01:35 | 40.62725 | -97.77172 | 28854 ft | 475 kts | 64° |
| 2026-05-04 01:36 | 40.65110 | -97.69067 | 28856 ft | 475 kts | 64° |
| 2026-05-04 01:36 | 40.67482 | -97.60951 | 28857 ft | 475 kts | 64° |
| 2026-05-04 01:37 | 40.69855 | -97.52822 | 28856 ft | 475 kts | 64° |
| 2026-05-04 01:37 | 40.72218 | -97.44682 | 28859 ft | 476 kts | 64° |
| 2026-05-04 01:38 | 40.74573 | -97.36513 | 28857 ft | 476 kts | 64° |
| 2026-05-04 01:38 | 40.76928 | -97.28352 | 28848 ft | 476 kts | 64° |
| 2026-05-04 01:39 | 40.79287 | -97.20182 | 28860 ft | 477 kts | 64° |
| 2026-05-04 01:39 | 40.81639 | -97.11989 | 28865 ft | 477 kts | 63° |
| 2026-05-04 01:40 | 40.83986 | -97.03799 | 28862 ft | 477 kts | 64° |
| 2026-05-04 01:40 | 40.86323 | -96.95596 | 28873 ft | 478 kts | 64° |
| 2026-05-04 01:41 | 40.88659 | -96.87377 | 28874 ft | 478 kts | 64° |
| 2026-05-04 01:41 | 40.90993 | -96.79151 | 28876 ft | 478 kts | 63° |
| 2026-05-04 01:42 | 40.93291 | -96.70904 | 28871 ft | 479 kts | 65° |
| 2026-05-04 01:42 | 40.95377 | -96.62520 | 28866 ft | 480 kts | 67° |
| 2026-05-04 01:43 | 40.97354 | -96.54139 | 28866 ft | 480 kts | 67° |
| 2026-05-04 01:43 | 40.99384 | -96.45655 | 28861 ft | 480 kts | 66° |
| 2026-05-04 01:44 | 41.01437 | -96.37256 | 28858 ft | 480 kts | 66° |
| 2026-05-04 01:44 | 41.03483 | -96.28907 | 28860 ft | 480 kts | 66° |
| 2026-05-04 01:45 | 41.05523 | -96.20498 | 28862 ft | 479 kts | 66° |
| 2026-05-04 01:45 | 41.08567 | -96.07897 | 28651 ft | 474 kts | 67° |
| 2026-05-04 01:46 | 41.09558 | -96.03756 | 28370 ft | 469 kts | 67° |
| 2026-05-04 01:46 | 41.10536 | -95.99652 | 28103 ft | 466 kts | 67° |
| 2026-05-04 01:46 | 41.11509 | -95.95573 | 27830 ft | 463 kts | 67° |
| 2026-05-04 01:46 | 41.12477 | -95.91507 | 27568 ft | 460 kts | 67° |
| 2026-05-04 01:47 | 41.13437 | -95.87478 | 27304 ft | 458 kts | 67° |
| 2026-05-04 01:47 | 41.14083 | -95.84764 | 27129 ft | 456 kts | 67° |
| 2026-05-04 01:47 | 41.15034 | -95.80764 | 26869 ft | 453 kts | 67° |
| 2026-05-04 01:47 | 41.15978 | -95.76792 | 26621 ft | 451 kts | 68° |
| 2026-05-04 01:48 | 41.16837 | -95.72791 | 26361 ft | 451 kts | 73° |
| 2026-05-04 01:48 | 41.17417 | -95.68700 | 26113 ft | 450 kts | 76° |
| 2026-05-04 01:48 | 41.17978 | -95.64628 | 25858 ft | 448 kts | 76° |
| 2026-05-04 01:48 | 41.18533 | -95.60581 | 25568 ft | 442 kts | 76° |
| 2026-05-04 01:49 | 41.19081 | -95.56583 | 25091 ft | 439 kts | 76° |
| 2026-05-04 01:49 | 41.19628 | -95.52605 | 24639 ft | 436 kts | 76° |
| 2026-05-04 01:49 | 41.20171 | -95.48655 | 24182 ft | 434 kts | 76° |
| 2026-05-04 01:49 | 41.20709 | -95.44733 | 23730 ft | 431 kts | 76° |
| 2026-05-04 01:50 | 41.21234 | -95.40876 | 23266 ft | 429 kts | 76° |
| 2026-05-04 01:50 | 41.21758 | -95.36998 | 22797 ft | 425 kts | 76° |
| 2026-05-04 01:50 | 41.22284 | -95.33100 | 22352 ft | 421 kts | 76° |
| 2026-05-04 01:50 | 41.22793 | -95.29340 | 21909 ft | 417 kts | 76° |
| 2026-05-04 01:51 | 41.23306 | -95.25562 | 21463 ft | 414 kts | 76° |
| 2026-05-04 01:51 | 41.23813 | -95.21809 | 21017 ft | 411 kts | 77° |
| 2026-05-04 01:51 | 41.24320 | -95.18027 | 20556 ft | 409 kts | 77° |
| 2026-05-04 01:51 | 41.24814 | -95.14320 | 20103 ft | 407 kts | 77° |
| 2026-05-04 01:52 | 41.25306 | -95.10624 | 19642 ft | 405 kts | 77° |
| 2026-05-04 01:52 | 41.25798 | -95.06949 | 19187 ft | 404 kts | 77° |
| 2026-05-04 01:52 | 41.26279 | -95.03330 | 18737 ft | 402 kts | 77° |
| 2026-05-04 01:52 | 41.26764 | -94.99679 | 18280 ft | 401 kts | 77° |
| 2026-05-04 01:53 | 41.27245 | -94.96036 | 17933 ft | 396 kts | 77° |
| 2026-05-04 01:53 | 41.27723 | -94.92395 | 17483 ft | 393 kts | 77° |
| 2026-05-04 01:53 | 41.28190 | -94.88822 | 17047 ft | 391 kts | 77° |
| 2026-05-04 01:53 | 41.28649 | -94.85316 | 16612 ft | 389 kts | 77° |
| 2026-05-04 01:54 | 41.29112 | -94.81775 | 16182 ft | 388 kts | 77° |
| 2026-05-04 01:54 | 41.29579 | -94.78205 | 15741 ft | 386 kts | 77° |
| 2026-05-04 01:54 | 41.30031 | -94.74738 | 15317 ft | 385 kts | 77° |
| 2026-05-04 01:54 | 41.30487 | -94.71229 | 14884 ft | 384 kts | 77° |
| 2026-05-04 01:55 | 41.30940 | -94.67731 | 14446 ft | 384 kts | 78° |
| 2026-05-04 01:55 | 41.31396 | -94.64188 | 14004 ft | 383 kts | 78° |
| 2026-05-04 01:55 | 41.31835 | -94.60743 | 13555 ft | 383 kts | 78° |
| 2026-05-04 01:55 | 41.32281 | -94.57257 | 13088 ft | 381 kts | 78° |
| 2026-05-04 01:56 | 41.32732 | -94.53752 | 12636 ft | 378 kts | 78° |
| 2026-05-04 01:56 | 41.33165 | -94.50359 | 12186 ft | 364 kts | 77° |
| 2026-05-04 01:56 | 41.33575 | -94.47148 | 11767 ft | 351 kts | 77° |
| 2026-05-04 01:56 | 41.33971 | -94.44002 | 11358 ft | 340 kts | 77° |
| 2026-05-04 01:57 | 41.34363 | -94.40899 | 10935 ft | 340 kts | 77° |
| 2026-05-04 01:57 | 41.34757 | -94.37788 | 10511 ft | 341 kts | 77° |
| 2026-05-04 01:57 | 41.35149 | -94.34701 | 10214 ft | 331 kts | 77° |
| 2026-05-04 01:57 | 41.35526 | -94.31728 | 9780 ft | 321 kts | 77° |
| 2026-05-04 01:58 | 41.35893 | -94.28831 | 9612 ft | 317 kts | 77° |
| 2026-05-04 01:58 | 41.36257 | -94.25946 | 9437 ft | 316 kts | 77° |
| 2026-05-04 01:58 | 41.36625 | -94.23057 | 8985 ft | 315 kts | 78° |
| 2026-05-04 01:58 | 41.36983 | -94.20209 | 8420 ft | 310 kts | 78° |
| 2026-05-04 01:59 | 41.37331 | -94.17406 | 7871 ft | 303 kts | 79° |
| 2026-05-04 01:59 | 41.37671 | -94.14665 | 7361 ft | 298 kts | 79° |
| 2026-05-04 01:59 | 41.38007 | -94.11950 | 6864 ft | 297 kts | 79° |
| 2026-05-04 01:59 | 41.38343 | -94.09266 | 6316 ft | 291 kts | 80° |
| 2026-05-04 02:00 | 41.38670 | -94.06639 | 5861 ft | 286 kts | 80° |
| 2026-05-04 02:00 | 41.38992 | -94.04035 | 5385 ft | 284 kts | 80° |
| 2026-05-04 02:00 | 41.39311 | -94.01463 | 5050 ft | 275 kts | 80° |
| 2026-05-04 02:00 | 41.39607 | -93.99055 | 4988 ft | 254 kts | 80° |
| 2026-05-04 02:01 | 41.39885 | -93.96772 | 4924 ft | 245 kts | 80° |
| 2026-05-04 02:01 | 41.40151 | -93.94577 | 4818 ft | 235 kts | 80° |
| 2026-05-04 02:01 | 41.40407 | -93.92483 | 4722 ft | 223 kts | 80° |
| 2026-05-04 02:01 | 41.40644 | -93.90511 | 4645 ft | 209 kts | 80° |
| 2026-05-04 02:02 | 41.40963 | -93.88716 | 4514 ft | 189 kts | 63° |
| 2026-05-04 02:02 | 41.41592 | -93.87280 | 4321 ft | 173 kts | 53° |
| 2026-05-04 02:02 | 41.42264 | -93.86004 | 4144 ft | 163 kts | 51° |
| 2026-05-04 02:02 | 41.42928 | -93.84785 | 3994 ft | 162 kts | 50° |
| 2026-05-04 02:03 | 41.43592 | -93.83576 | 3800 ft | 161 kts | 50° |
| 2026-05-04 02:03 | 41.44250 | -93.82384 | 3585 ft | 160 kts | 51° |
| 2026-05-04 02:03 | 41.44907 | -93.81194 | 3384 ft | 159 kts | 50° |
| 2026-05-04 02:03 | 41.45561 | -93.80010 | 3179 ft | 159 kts | 50° |
| 2026-05-04 02:04 | 41.46213 | -93.78827 | 2972 ft | 158 kts | 50° |
| 2026-05-04 02:04 | 41.46864 | -93.77648 | 2764 ft | 158 kts | 50° |
| 2026-05-04 02:04 | 41.47512 | -93.76473 | 2548 ft | 158 kts | 50° |
| 2026-05-04 02:04 | 41.48160 | -93.75299 | 2346 ft | 156 kts | 49° |
| 2026-05-04 02:05 | 41.48804 | -93.74129 | 2139 ft | 156 kts | 50° |
| 2026-05-04 02:05 | 41.49445 | -93.72966 | 1921 ft | 155 kts | 49° |
| 2026-05-04 02:05 | 41.50085 | -93.71804 | 1732 ft | 154 kts | 50° |
| 2026-05-04 02:05 | 41.50723 | -93.70648 | 1513 ft | 153 kts | 51° |
| 2026-05-04 02:06 | 41.51379 | -93.69491 | 1346 ft | 160 kts | 51° |
| 2026-05-04 02:06 | 41.52027 | -93.68287 | 1154 ft | 160 kts | 54° |
| 2026-05-04 02:06 | 41.52687 | -93.67078 | 1168 ft | 168 kts | 53° |
| 2026-05-04 02:06 | 41.53414 | -93.65753 | 1529 ft | 185 kts | 52° |
| 2026-05-04 02:07 | 41.54223 | -93.64332 | 1929 ft | 201 kts | 50° |
| 2026-05-04 02:07 | 41.55128 | -93.62799 | 2221 ft | 215 kts | 48° |
| 2026-05-04 02:07 | 41.56223 | -93.61509 | 2310 ft | 210 kts | 22° |
| 2026-05-04 02:07 | 41.57622 | -93.61124 | 2396 ft | 205 kts | 352° |
| 2026-05-04 02:08 | 41.58935 | -93.61723 | 2419 ft | 198 kts | 321° |
| 2026-05-04 02:08 | 41.59776 | -93.63117 | 2376 ft | 193 kts | 290° |
| 2026-05-04 02:08 | 41.60105 | -93.64823 | 2353 ft | 191 kts | 282° |
| 2026-05-04 02:08 | 41.60372 | -93.66530 | 2421 ft | 178 kts | 281° |
| 2026-05-04 02:09 | 41.60581 | -93.68076 | 2419 ft | 170 kts | 280° |
| 2026-05-04 02:09 | 41.60605 | -93.69670 | 2323 ft | 176 kts | 261° |
| 2026-05-04 02:09 | 41.60102 | -93.71124 | 2225 ft | 172 kts | 231° |
| 2026-05-04 02:09 | 41.59100 | -93.71995 | 1955 ft | 177 kts | 203° |
| 2026-05-04 02:10 | 41.57920 | -93.72100 | 1764 ft | 167 kts | 169° |
| 2026-05-04 02:10 | 41.56978 | -93.71285 | 1559 ft | 163 kts | 128° |
| 2026-05-04 02:10 | 41.56339 | -93.70066 | 1387 ft | 156 kts | 126° |
| 2026-05-04 02:10 | 41.55641 | -93.68985 | 1253 ft | 152 kts | 135° |
| 2026-05-04 02:11 | 41.54926 | -93.67966 | 1114 ft | 152 kts | 134° |
| 2026-05-04 02:11 | 41.54218 | -93.66935 | 1001 ft | 148 kts | 134° |
| 2026-05-04 02:11 | 41.53571 | -93.66005 | 967 ft | 114 kts | 132° |
| 2026-05-04 02:11 | 41.53192 | -93.65450 | 964 ft | 41 kts | 133° |
| 2026-05-04 02:12 | 41.53067 | -93.65267 | 966 ft | 25 kts | 132° |
| 2026-05-04 02:12 | 41.52960 | -93.65107 | 961 ft | 17 kts | 131° |
| 2026-05-04 02:12 | 41.52943 | -93.64983 | 963 ft | 13 kts | 57° |
| 2026-05-04 02:12 | 41.53005 | -93.64908 | 966 ft | 11 kts | 31° |
| 2026-05-04 02:13 | 41.53061 | -93.64945 | 965 ft | 9 kts | 313° |
| 2026-05-04 02:13 | 41.53100 | -93.64989 | 965 ft | 5 kts | 316° |
| 2026-05-04 02:13 | 41.53121 | -93.65007 | 967 ft | 2 kts | 342° |
| 2026-05-04 02:13 | 41.53131 | -93.65010 | 964 ft | 1 kts | 348° |
| 2026-05-04 02:14 | 41.53153 | -93.65012 | 965 ft | 0 kts | 359° |
| 2026-05-04 02:14 | 41.53155 | -93.65012 | 964 ft | 0 kts | 359° |
| 2026-05-04 02:14 | 41.53158 | -93.65012 | 964 ft | 0 kts | 359° |